Time;durP1;ratioP1;P1;durP2;ratioP2;P2;SDS_P1;SDS_P2;PMS_P1;PMS_P2;Temp;Humidity;BMP_temperature;BMP_pressure;BME280_temperature;BME280_humidity;BME280_pressure;Samples;Min_cycle;Max_cycle;Signal;HPM_P1;HPM_P2
2024/01/15 00:01:50;;;;;;;0.33;0.33;;;5.10;99.90;;;;;;5016437;28;20676;-81
2024/01/15 00:04:15;;;;;;;4.00;0.67;;;5.00;99.90;;;;;;5005504;28;20187;-81
2024/01/15 00:06:41;;;;;;;0.30;0.30;;;5.10;99.90;;;;;;4984672;28;20249;-82
2024/01/15 00:09:07;;;;;;;0.40;0.40;;;5.10;99.90;;;;;;5000498;28;20219;-82
2024/01/15 00:11:33;;;;;;;0.30;0.30;;;5.10;99.90;;;;;;4999790;28;20239;-82
2024/01/15 00:13:58;;;;;;;0.57;0.57;;;5.00;99.90;;;;;;4984275;28;20242;-82
2024/01/15 00:16:24;;;;;;;5.30;0.50;;;5.10;99.90;;;;;;4999495;28;20285;-82
2024/01/15 00:18:50;;;;;;;3.97;0.53;;;4.40;99.90;;;;;;5000921;28;20245;-82
2024/01/15 00:21:16;;;;;;;0.30;0.30;;;4.20;99.90;;;;;;5000158;28;21188;-82
2024/01/15 00:23:45;;;;;;;0.20;0.20;;;3.90;99.90;;;;;;5016304;28;20693;-84
2024/01/15 00:26:11;;;;;;;1.53;0.50;;;3.80;99.90;;;;;;5016271;28;20270;-82
2024/01/15 00:28:37;;;;;;;0.30;0.30;;;3.80;99.90;;;;;;4982345;28;20223;-82
2024/01/15 00:31:06;;;;;;;1.03;0.93;;;3.60;99.90;;;;;;5000318;28;20191;-82
2024/01/15 00:33:32;;;;;;;0.63;0.63;;;3.80;99.90;;;;;;5015394;28;20227;-82
2024/01/15 00:35:58;;;;;;;0.30;0.30;;;3.70;99.90;;;;;;4998916;28;20717;-81
2024/01/15 00:38:24;;;;;;;1.37;1.27;;;3.80;99.90;;;;;;4998967;28;20211;-82
2024/01/15 00:40:50;;;;;;;0.20;0.20;;;3.60;99.90;;;;;;4998622;28;20292;-82
2024/01/15 00:43:18;;;;;;;0.40;0.40;;;3.50;99.90;;;;;;5015960;28;20639;-81
2024/01/15 00:45:43;;;;;;;0.57;0.57;;;3.70;99.90;;;;;;5017689;28;20743;-82
2024/01/15 00:48:09;;;;;;;0.30;0.30;;;3.60;99.90;;;;;;4999950;28;20231;-82
2024/01/15 00:50:35;;;;;;;0.20;0.20;;;3.80;99.90;;;;;;4999004;28;20683;-81
2024/01/15 00:53:01;;;;;;;2.10;0.63;;;3.70;99.90;;;;;;5015547;28;20223;-82
2024/01/15 00:55:28;;;;;;;1.90;1.17;;;3.90;99.90;;;;;;4998063;28;20210;-82
2024/01/15 00:57:54;;;;;;;0.30;0.30;;;3.90;99.90;;;;;;5000682;28;20220;-81
2024/01/15 01:00:20;;;;;;;0.30;0.30;;;4.10;99.90;;;;;;4999389;28;20246;-81
2024/01/15 01:02:45;;;;;;;0.67;0.67;;;4.00;99.90;;;;;;4999307;28;20227;-82
2024/01/15 01:05:11;;;;;;;0.20;0.20;;;4.10;99.90;;;;;;4998651;28;20235;-82
2024/01/15 01:07:37;;;;;;;0.20;0.20;;;4.20;99.90;;;;;;4998369;28;20297;-83
2024/01/15 01:10:03;;;;;;;0.30;0.30;;;4.20;99.90;;;;;;4999614;28;20199;-82
2024/01/15 01:12:29;;;;;;;1.70;1.70;;;4.30;99.90;;;;;;4998794;28;20777;-83
2024/01/15 01:14:55;;;;;;;0.30;0.30;;;4.30;99.90;;;;;;4981000;28;20302;-82
2024/01/15 01:17:22;;;;;;;4.07;2.43;;;4.10;99.90;;;;;;4998660;28;20237;-82
2024/01/15 01:19:47;;;;;;;0.30;0.30;;;4.00;99.90;;;;;;4998049;28;20567;-83
2024/01/15 01:22:13;;;;;;;0.30;0.30;;;4.20;99.90;;;;;;4998919;28;20203;-82
2024/01/15 01:24:39;;;;;;;0.30;0.30;;;4.10;99.90;;;;;;4988678;28;20817;-83
2024/01/15 01:27:04;;;;;;;1.20;0.50;;;4.30;99.90;;;;;;4999473;28;20238;-80
2024/01/15 01:29:30;;;;;;;0.50;0.50;;;4.60;99.90;;;;;;4998130;28;20671;-81
2024/01/15 01:31:56;;;;;;;0.30;0.30;;;4.70;99.90;;;;;;4998851;28;20300;-82
2024/01/15 01:34:22;;;;;;;0.33;0.33;;;4.70;99.90;;;;;;4982696;28;20191;-82
2024/01/15 01:36:48;;;;;;;0.20;0.20;;;4.70;99.90;;;;;;4998724;28;20680;-83
2024/01/15 01:39:13;;;;;;;1.30;1.30;;;4.70;99.90;;;;;;4998481;28;20223;-82
2024/01/15 01:41:40;;;;;;;0.53;0.53;;;4.80;99.90;;;;;;4981688;28;20674;-82
2024/01/15 01:44:07;;;;;;;1.03;1.03;;;4.80;99.90;;;;;;4998699;28;20231;-83
2024/01/15 01:46:33;;;;;;;0.63;0.60;;;4.90;99.90;;;;;;4998647;28;20247;-82
2024/01/15 01:49:05;;;;;;;7.57;1.30;;;5.00;99.90;;;;;;4998950;28;20591;-81
2024/01/15 01:51:31;;;;;;;0.40;0.40;;;4.60;99.90;;;;;;4983222;28;20229;-82
2024/01/15 01:53:57;;;;;;;0.20;0.20;;;4.20;99.90;;;;;;4997604;28;20588;-82
2024/01/15 01:56:23;;;;;;;1.70;0.63;;;4.10;99.90;;;;;;4998215;28;20242;-81
2024/01/15 01:58:49;;;;;;;0.77;0.77;;;4.20;99.90;;;;;;4997077;28;20719;-82
2024/01/15 02:01:16;;;;;;;0.87;0.50;;;4.40;99.90;;;;;;5014597;28;20290;-82
2024/01/15 02:03:42;;;;;;;2.67;0.73;;;4.40;99.90;;;;;;4998453;28;20198;-81
2024/01/15 02:06:08;;;;;;;1.10;0.40;;;4.40;99.90;;;;;;4998373;28;20227;-81
2024/01/15 02:08:34;;;;;;;0.67;0.67;;;4.40;99.90;;;;;;4982192;28;20235;-82
2024/01/15 02:11:00;;;;;;;4.43;0.90;;;4.30;99.90;;;;;;4981731;28;20250;-82
2024/01/15 02:13:26;;;;;;;0.70;0.70;;;4.30;99.90;;;;;;4998409;28;20553;-81
2024/01/15 02:15:52;;;;;;;3.47;0.60;;;4.40;99.90;;;;;;4997739;28;20184;-81
2024/01/15 02:18:17;;;;;;;1.47;0.60;;;4.50;99.90;;;;;;4997935;28;20273;-82
2024/01/15 02:20:44;;;;;;;1.10;0.47;;;4.60;99.90;;;;;;4981327;28;20218;-83
2024/01/15 02:23:14;;;;;;;1.00;0.40;;;4.70;99.90;;;;;;4982239;28;20231;-82
2024/01/15 02:25:45;;;;;;;0.40;0.40;;;4.60;99.90;;;;;;4981257;28;20238;-81
2024/01/15 02:28:16;;;;;;;0.20;0.20;;;4.50;99.90;;;;;;5000211;28;20179;-82
2024/01/15 02:30:42;;;;;;;0.20;0.20;;;4.60;99.90;;;;;;5014478;28;20219;-82
2024/01/15 02:33:09;;;;;;;0.20;0.20;;;4.70;99.90;;;;;;4998386;28;20750;-81
2024/01/15 02:35:36;;;;;;;7.33;3.90;;;4.90;99.90;;;;;;4997322;28;20215;-83
2024/01/15 02:38:03;;;;;;;0.20;0.20;;;4.80;99.90;;;;;;4998826;28;20247;-83
2024/01/15 02:40:29;;;;;;;0.57;0.57;;;4.50;99.90;;;;;;4985490;28;20274;-81
2024/01/15 02:42:55;;;;;;;0.30;0.30;;;4.40;99.90;;;;;;4998209;28;20195;-83
2024/01/15 02:45:21;;;;;;;0.20;0.20;;;4.40;99.90;;;;;;4982476;28;20718;-82
2024/01/15 02:47:47;;;;;;;2.83;0.50;;;4.50;99.90;;;;;;5029571;28;20234;-82
2024/01/15 02:50:14;;;;;;;0.30;0.30;;;4.60;99.90;;;;;;4997943;28;20235;-82
2024/01/15 02:52:40;;;;;;;9.13;2.10;;;4.50;99.90;;;;;;4997702;28;20233;-83
2024/01/15 02:55:06;;;;;;;0.20;0.20;;;4.50;99.90;;;;;;5014685;28;20192;-82
2024/01/15 02:57:32;;;;;;;0.40;0.40;;;4.50;99.90;;;;;;4981263;28;21107;-83
2024/01/15 02:59:57;;;;;;;0.37;0.37;;;4.60;99.90;;;;;;4997868;28;20239;-81
2024/01/15 03:02:23;;;;;;;1.13;0.67;;;4.70;99.90;;;;;;5004119;28;20223;-81
2024/01/15 03:04:49;;;;;;;0.40;0.40;;;4.90;99.90;;;;;;4998145;28;20241;-83
2024/01/15 03:07:16;;;;;;;0.43;0.20;;;5.00;99.90;;;;;;4997395;28;20561;-82
2024/01/15 03:09:41;;;;;;;0.40;0.40;;;5.00;99.90;;;;;;4981727;28;20234;-81
2024/01/15 03:12:07;;;;;;;0.30;0.30;;;4.80;99.90;;;;;;4996898;28;20603;-83
2024/01/15 03:14:33;;;;;;;1.53;0.57;;;4.50;99.90;;;;;;4997965;28;20231;-83
2024/01/15 03:17:00;;;;;;;1.80;0.40;;;4.50;99.90;;;;;;4996943;28;20425;-83
2024/01/15 03:19:26;;;;;;;1.10;1.10;;;4.60;99.90;;;;;;4998075;28;20679;-81
2024/01/15 03:21:52;;;;;;;0.63;0.50;;;4.80;99.90;;;;;;4981385;28;20221;-82
2024/01/15 03:24:18;;;;;;;0.70;0.70;;;4.80;99.90;;;;;;4997959;28;20234;-82
2024/01/15 03:26:43;;;;;;;3.70;2.73;;;5.00;99.90;;;;;;5015691;28;20238;-82
2024/01/15 03:29:09;;;;;;;0.30;0.30;;;4.40;99.90;;;;;;5000762;28;20537;-83
2024/01/15 03:31:35;;;;;;;1.40;0.77;;;4.10;99.90;;;;;;5017434;28;21033;-82
2024/01/15 03:34:00;;;;;;;0.80;0.80;;;3.80;99.90;;;;;;5001118;28;20180;-82
2024/01/15 03:36:26;;;;;;;2.93;2.83;;;3.80;99.90;;;;;;5001026;28;20223;-83
2024/01/15 03:38:52;;;;;;;1.37;0.37;;;3.80;99.90;;;;;;5000779;28;20211;-83
2024/01/15 03:41:18;;;;;;;0.20;0.20;;;3.70;99.90;;;;;;5001513;28;20753;-83
2024/01/15 03:43:43;;;;;;;0.20;0.20;;;3.60;99.90;;;;;;5000637;28;20222;-82
2024/01/15 03:46:09;;;;;;;0.30;0.30;;;3.60;99.90;;;;;;5001130;28;20212;-82
2024/01/15 03:48:35;;;;;;;0.50;0.50;;;3.60;99.90;;;;;;4985381;28;20223;-81
2024/01/15 03:51:01;;;;;;;0.30;0.30;;;3.60;99.90;;;;;;5000089;28;20302;-82
2024/01/15 03:53:26;;;;;;;0.47;0.30;;;3.80;99.90;;;;;;5000757;28;20305;-82
2024/01/15 03:55:52;;;;;;;0.30;0.30;;;4.00;99.90;;;;;;4999368;28;20567;-83
2024/01/15 03:58:18;;;;;;;0.30;0.30;;;3.90;99.90;;;;;;5015913;28;20374;-83
2024/01/15 04:00:44;;;;;;;2.80;0.60;;;4.00;99.90;;;;;;5000394;28;20228;-82
2024/01/15 04:03:10;;;;;;;0.40;0.40;;;4.00;99.90;;;;;;4999466;28;20661;-82
2024/01/15 04:05:35;;;;;;;0.30;0.30;;;4.10;99.90;;;;;;5000086;28;20227;-82
2024/01/15 04:08:01;;;;;;;0.20;0.20;;;4.00;99.90;;;;;;5000138;28;20698;-82
2024/01/15 04:10:27;;;;;;;0.20;0.20;;;3.80;99.90;;;;;;4999983;28;20195;-83
2024/01/15 04:12:52;;;;;;;0.30;0.30;;;3.70;99.90;;;;;;5000826;28;20195;-83
2024/01/15 04:15:18;;;;;;;1.53;1.53;;;3.60;99.90;;;;;;4999425;28;20215;-83
2024/01/15 04:17:44;;;;;;;0.27;0.27;;;3.60;99.90;;;;;;4984545;28;20314;-82
2024/01/15 04:20:10;;;;;;;0.50;0.50;;;3.60;99.90;;;;;;4999768;28;20338;-82
2024/01/15 04:22:37;;;;;;;0.40;0.40;;;3.80;99.90;;;;;;5000198;28;20227;-83
2024/01/15 04:25:03;;;;;;;0.70;0.70;;;3.90;99.90;;;;;;5000697;28;20249;-81
2024/01/15 04:27:29;;;;;;;1.60;0.53;;;3.90;99.90;;;;;;5000067;28;20224;-83
2024/01/15 04:29:54;;;;;;;0.40;0.40;;;3.70;99.90;;;;;;5017124;28;20694;-83
2024/01/15 04:32:20;;;;;;;0.30;0.30;;;3.60;99.90;;;;;;5000574;28;20667;-83
2024/01/15 04:34:46;;;;;;;0.30;0.30;;;3.60;99.90;;;;;;4983180;28;20281;-83
2024/01/15 04:37:13;;;;;;;0.30;0.30;;;3.90;99.90;;;;;;5032405;28;20564;-82
2024/01/15 04:39:39;;;;;;;0.30;0.30;;;3.90;99.90;;;;;;5000587;28;20195;-82
2024/01/15 04:42:05;;;;;;;0.70;0.70;;;3.90;99.90;;;;;;4999779;28;20693;-82
2024/01/15 04:44:31;;;;;;;2.23;1.40;;;4.00;99.90;;;;;;4983520;28;20219;-82
2024/01/15 04:46:56;;;;;;;0.50;0.50;;;3.90;99.90;;;;;;4999670;28;20757;-83
2024/01/15 04:49:22;;;;;;;0.50;0.50;;;3.90;99.90;;;;;;4999122;28;20187;-82
2024/01/15 04:51:48;;;;;;;0.73;0.73;;;3.90;99.90;;;;;;4984447;28;20177;-82
2024/01/15 04:54:17;;;;;;;0.37;0.37;;;3.70;99.90;;;;;;4999305;28;20218;-82
2024/01/15 04:56:44;;;;;;;18.33;2.23;;;3.80;99.90;;;;;;4999217;28;20262;-83
2024/01/15 04:59:10;;;;;;;0.20;0.20;;;3.90;99.90;;;;;;5015153;28;20250;-82
2024/01/15 05:01:36;;;;;;;0.33;0.33;;;3.80;99.90;;;;;;4999701;28;20890;-82
2024/01/15 05:04:02;;;;;;;0.30;0.30;;;3.90;99.90;;;;;;5000533;28;20203;-83
2024/01/15 05:06:28;;;;;;;2.70;1.17;;;3.80;99.90;;;;;;4999697;28;20693;-82
2024/01/15 05:08:53;;;;;;;0.40;0.40;;;3.80;99.90;;;;;;5031108;28;20219;-83
2024/01/15 05:11:19;;;;;;;1.70;0.87;;;3.80;99.90;;;;;;4983063;28;20227;-81
2024/01/15 05:13:45;;;;;;;0.27;0.27;;;3.90;99.90;;;;;;4987835;28;20215;-82
2024/01/15 05:16:10;;;;;;;5.63;1.30;;;3.90;99.90;;;;;;5016497;28;21148;-82
2024/01/15 05:18:39;;;;;;;1.90;1.80;;;4.00;99.90;;;;;;4982311;28;20294;-82
2024/01/15 05:21:04;;;;;;;0.30;0.30;;;4.10;99.90;;;;;;5015772;28;21097;-82
2024/01/15 05:23:31;;;;;;;0.30;0.30;;;4.10;99.90;;;;;;5014775;28;20215;-83
2024/01/15 05:25:57;;;;;;;0.30;0.30;;;4.10;99.90;;;;;;4982416;28;20426;-83
2024/01/15 05:28:23;;;;;;;0.30;0.30;;;4.10;99.90;;;;;;4982664;28;20269;-83
2024/01/15 05:30:50;;;;;;;0.97;0.63;;;4.10;99.90;;;;;;5000137;28;20270;-81
2024/01/15 05:33:16;;;;;;;0.50;0.50;;;4.20;99.90;;;;;;4982897;28;20223;-82
2024/01/15 05:35:42;;;;;;;0.20;0.20;;;4.10;99.90;;;;;;4998917;28;21072;-82
2024/01/15 05:38:08;;;;;;;0.30;0.30;;;4.10;99.90;;;;;;4998618;28;20293;-81
2024/01/15 05:40:34;;;;;;;0.40;0.40;;;4.10;99.90;;;;;;4983007;28;20227;-82
2024/01/15 05:43:00;;;;;;;2.40;1.80;;;4.10;99.90;;;;;;4982624;28;20226;-82
2024/01/15 05:45:30;;;;;;;0.23;0.23;;;4.10;99.90;;;;;;4999300;28;20231;-82
2024/01/15 05:47:56;;;;;;;0.30;0.30;;;4.20;99.90;;;;;;4999120;28;20224;-82
2024/01/15 05:50:22;;;;;;;3.70;0.63;;;4.20;99.90;;;;;;4997455;28;20222;-82
2024/01/15 05:52:48;;;;;;;0.20;0.20;;;4.30;99.90;;;;;;4998978;28;20251;-82
2024/01/15 05:55:14;;;;;;;0.30;0.30;;;4.10;99.90;;;;;;4982386;28;20190;-81
2024/01/15 05:57:39;;;;;;;0.30;0.30;;;3.90;99.90;;;;;;4982540;28;20269;-83
2024/01/15 06:00:06;;;;;;;0.50;0.43;;;3.80;99.90;;;;;;4981654;28;20658;-83
2024/01/15 06:02:32;;;;;;;0.30;0.30;;;3.60;99.90;;;;;;4999290;28;20230;-82
2024/01/15 06:04:57;;;;;;;0.30;0.30;;;3.50;99.90;;;;;;4999438;28;20227;-82
2024/01/15 06:07:23;;;;;;;0.30;0.30;;;3.50;99.90;;;;;;4981895;28;20230;-83
2024/01/15 06:09:49;;;;;;;0.40;0.40;;;3.40;99.90;;;;;;4998804;28;20195;-82
2024/01/15 06:12:15;;;;;;;0.50;0.50;;;3.40;99.90;;;;;;4998606;28;20223;-82
2024/01/15 06:14:41;;;;;;;0.30;0.30;;;3.30;99.90;;;;;;4997619;28;20925;-82
2024/01/15 06:17:07;;;;;;;0.30;0.30;;;3.20;99.90;;;;;;4997189;28;20932;-82
2024/01/15 06:19:33;;;;;;;0.30;0.30;;;3.20;99.90;;;;;;4997827;28;20229;-82
2024/01/15 06:21:58;;;;;;;18.93;0.70;;;3.20;99.90;;;;;;4981339;28;20666;-82
2024/01/15 06:24:24;;;;;;;0.33;0.33;;;3.20;99.90;;;;;;4997360;28;20621;-83
2024/01/15 06:26:50;;;;;;;0.20;0.20;;;3.20;99.90;;;;;;4997559;28;20297;-82
2024/01/15 06:29:15;;;;;;;0.30;0.30;;;3.30;99.90;;;;;;4997717;28;20298;-82
2024/01/15 06:31:41;;;;;;;2.53;2.27;;;3.30;99.90;;;;;;4997230;28;20330;-82
2024/01/15 06:34:09;;;;;;;0.20;0.20;;;3.20;99.90;;;;;;4998560;28;20196;-82
2024/01/15 06:36:35;;;;;;;0.30;0.30;;;3.20;99.90;;;;;;5014263;28;20687;-82
2024/01/15 06:39:01;;;;;;;0.40;0.40;;;3.20;99.90;;;;;;4981969;28;20227;-82
2024/01/15 06:41:27;;;;;;;0.20;0.20;;;3.20;99.90;;;;;;4981702;28;21278;-82
2024/01/15 06:43:52;;;;;;;0.30;0.30;;;3.20;99.90;;;;;;4981692;28;20227;-81
2024/01/15 06:46:22;;;;;;;0.67;0.67;;;3.20;99.90;;;;;;4998059;28;20187;-81
2024/01/15 06:48:48;;;;;;;0.47;0.47;;;3.30;99.90;;;;;;5030713;28;20191;-82
2024/01/15 06:51:14;;;;;;;0.30;0.30;;;3.50;99.90;;;;;;4996343;28;20223;-82
2024/01/15 06:53:39;;;;;;;0.30;0.30;;;3.60;99.90;;;;;;4998609;28;21126;-83
2024/01/15 06:56:05;;;;;;;0.70;0.53;;;3.60;99.90;;;;;;5014483;28;20226;-83
2024/01/15 06:58:31;;;;;;;0.30;0.30;;;3.50;99.90;;;;;;4997645;28;20318;-83
2024/01/15 07:00:57;;;;;;;1.50;1.23;;;3.60;99.90;;;;;;4983213;28;20200;-82
2024/01/15 07:03:23;;;;;;;0.40;0.40;;;3.40;99.90;;;;;;5001229;28;20249;-84
2024/01/15 07:05:49;;;;;;;0.30;0.30;;;2.80;99.90;;;;;;5001887;28;20591;-82
2024/01/15 07:08:15;;;;;;;0.30;0.30;;;2.70;99.90;;;;;;4985328;28;20281;-83
2024/01/15 07:10:41;;;;;;;0.30;0.30;;;2.70;99.90;;;;;;5001652;28;20223;-83
2024/01/15 07:13:06;;;;;;;0.73;0.73;;;2.80;99.90;;;;;;5034130;28;20358;-83
2024/01/15 07:15:32;;;;;;;0.40;0.40;;;3.00;99.90;;;;;;4991741;28;20215;-82
2024/01/15 07:17:58;;;;;;;0.30;0.30;;;2.70;99.90;;;;;;5033201;28;21079;-83
2024/01/15 07:20:24;;;;;;;0.27;0.27;;;2.50;99.90;;;;;;5000306;28;20223;-82
2024/01/15 07:22:50;;;;;;;0.30;0.30;;;2.20;99.90;;;;;;4985273;28;20322;-83
2024/01/15 07:25:16;;;;;;;0.30;0.30;;;2.40;99.90;;;;;;4985087;28;20196;-83
2024/01/15 07:27:44;;;;;;;0.30;0.30;;;2.30;99.90;;;;;;5001814;28;20195;-81
2024/01/15 07:30:11;;;;;;;0.30;0.30;;;2.80;99.90;;;;;;5016266;28;20231;-82
2024/01/15 07:32:37;;;;;;;0.37;0.37;;;2.70;99.90;;;;;;5000915;28;20590;-80
2024/01/15 07:35:03;;;;;;;0.20;0.20;;;2.80;99.90;;;;;;4983701;28;20231;-83
2024/01/15 07:37:29;;;;;;;0.40;0.40;;;2.40;99.90;;;;;;5016121;28;20230;-82
2024/01/15 07:39:55;;;;;;;0.30;0.30;;;2.60;99.90;;;;;;4985627;28;20362;-83
2024/01/15 07:42:21;;;;;;;0.30;0.30;;;2.50;99.90;;;;;;5000354;28;20262;-82
2024/01/15 07:44:46;;;;;;;0.30;0.30;;;2.60;99.90;;;;;;5000828;28;20376;-83
2024/01/15 07:47:12;;;;;;;0.30;0.30;;;2.40;99.90;;;;;;4983052;28;20886;-82
2024/01/15 07:49:38;;;;;;;0.30;0.30;;;2.50;99.90;;;;;;4983818;28;20940;-82
2024/01/15 07:52:05;;;;;;;0.30;0.30;;;2.60;99.90;;;;;;5000525;28;20202;-82
2024/01/15 07:54:31;;;;;;;0.23;0.23;;;2.50;99.90;;;;;;5000735;28;20219;-83
2024/01/15 07:57:03;;;;;;;0.30;0.30;;;2.90;99.90;;;;;;5000461;28;20259;-84
2024/01/15 07:59:32;;;;;;;1.43;1.43;;;2.80;99.90;;;;;;5001968;28;21123;-83
2024/01/15 08:01:59;;;;;;;0.20;0.20;;;2.90;99.90;;;;;;5001540;28;20227;-83
2024/01/15 08:04:25;;;;;;;0.30;0.30;;;2.90;99.90;;;;;;5000544;28;20187;-83
2024/01/15 08:06:50;;;;;;;0.30;0.30;;;3.00;99.90;;;;;;5003202;28;21179;-85
2024/01/15 08:09:16;;;;;;;0.20;0.20;;;3.10;99.90;;;;;;5002673;28;20223;-86
2024/01/15 08:11:43;;;;;;;0.30;0.30;;;2.70;99.90;;;;;;5018725;28;20215;-85
2024/01/15 08:14:10;;;;;;;0.83;0.50;;;2.90;99.90;;;;;;4985642;28;20218;-85
2024/01/15 08:16:39;;;;;;;0.30;0.30;;;2.80;99.90;;;;;;5032643;28;20768;-82
2024/01/15 08:19:05;;;;;;;0.40;0.40;;;2.70;99.90;;;;;;4984692;28;20194;-88
2024/01/15 08:21:31;;;;;;;3.60;2.10;;;2.70;99.90;;;;;;4984012;28;20223;-82
2024/01/15 08:24:02;;;;;;;0.40;0.40;;;2.90;99.90;;;;;;5001128;28;20313;-82
2024/01/15 08:26:28;;;;;;;0.20;0.20;;;2.80;99.90;;;;;;4999408;28;20601;-81
2024/01/15 08:28:54;;;;;;;0.30;0.30;;;3.00;99.90;;;;;;4999544;28;20354;-81
2024/01/15 08:31:20;;;;;;;0.30;0.30;;;3.00;99.90;;;;;;5000080;28;20195;-82
2024/01/15 08:33:46;;;;;;;0.20;0.20;;;3.20;99.90;;;;;;4984665;28;20188;-82
2024/01/15 08:36:13;;;;;;;0.30;0.30;;;3.30;99.90;;;;;;4999528;28;20226;-82
2024/01/15 08:38:39;;;;;;;0.60;0.60;;;3.30;99.90;;;;;;4999970;28;20574;-81
2024/01/15 08:41:04;;;;;;;8.20;0.87;;;3.40;99.90;;;;;;4999168;28;20229;-82
2024/01/15 08:43:33;;;;;;;0.30;0.30;;;3.50;99.90;;;;;;4998653;28;20655;-82
2024/01/15 08:45:59;;;;;;;0.30;0.30;;;3.60;99.90;;;;;;5000792;28;20194;-81
2024/01/15 08:48:27;;;;;;;2.10;0.80;;;3.70;99.90;;;;;;4998534;28;20223;-82
2024/01/15 08:50:54;;;;;;;0.30;0.30;;;3.80;99.90;;;;;;4999619;28;20273;-83
2024/01/15 08:53:20;;;;;;;0.30;0.30;;;3.70;99.90;;;;;;4998546;28;20241;-82
2024/01/15 08:55:46;;;;;;;0.30;0.30;;;3.60;99.90;;;;;;4999374;28;21303;-82
2024/01/15 08:58:12;;;;;;;0.20;0.20;;;3.60;99.90;;;;;;4999342;28;20222;-82
2024/01/15 09:00:37;;;;;;;2.30;0.70;;;3.60;99.90;;;;;;5015286;28;20306;-83
2024/01/15 09:03:03;;;;;;;0.40;0.40;;;3.60;99.90;;;;;;5015607;28;20227;-82
2024/01/15 09:05:29;;;;;;;1.97;0.70;;;3.50;99.90;;;;;;4998562;28;20215;-82
2024/01/15 09:07:55;;;;;;;0.37;0.37;;;3.50;99.90;;;;;;4982294;28;20231;-81
2024/01/15 09:10:21;;;;;;;0.30;0.30;;;3.50;99.90;;;;;;4998194;28;20210;-82
2024/01/15 09:12:48;;;;;;;0.90;0.90;;;3.70;99.90;;;;;;5016328;28;20369;-82
2024/01/15 09:15:15;;;;;;;4.23;3.93;;;3.70;99.90;;;;;;4982406;28;20217;-82
2024/01/15 09:17:40;;;;;;;1.27;1.27;;;3.70;99.90;;;;;;4982560;28;20711;-83
2024/01/15 09:20:07;;;;;;;0.20;0.20;;;3.60;99.90;;;;;;4999579;28;20215;-82
2024/01/15 09:22:33;;;;;;;0.40;0.40;;;3.80;99.90;;;;;;4998294;28;20246;-81
2024/01/15 09:24:59;;;;;;;0.23;0.23;;;3.90;99.90;;;;;;5015576;28;20580;-82
2024/01/15 09:27:26;;;;;;;0.30;0.30;;;3.70;99.90;;;;;;4998096;28;20683;-82
2024/01/15 09:29:55;;;;;;;0.40;0.40;;;3.70;99.90;;;;;;4981791;28;20229;-81
2024/01/15 09:32:20;;;;;;;0.30;0.30;;;3.80;99.90;;;;;;4998352;28;20706;-81
2024/01/15 09:34:46;;;;;;;0.70;0.70;;;4.10;99.90;;;;;;5015027;28;20223;-81
2024/01/15 09:37:14;;;;;;;0.20;0.20;;;4.30;99.90;;;;;;4997906;28;20246;-82
2024/01/15 09:39:40;;;;;;;0.73;0.73;;;4.40;99.90;;;;;;4997914;28;20216;-81
2024/01/15 09:42:06;;;;;;;0.30;0.30;;;4.50;99.90;;;;;;4998664;28;20219;-82
2024/01/15 09:44:32;;;;;;;0.30;0.30;;;4.30;99.90;;;;;;4998262;28;20211;-82
2024/01/15 09:46:59;;;;;;;0.37;0.37;;;4.50;99.90;;;;;;4999555;28;20222;-83
2024/01/15 09:49:25;;;;;;;0.23;0.23;;;4.70;99.90;;;;;;4999702;28;20273;-84
2024/01/15 09:51:51;;;;;;;0.40;0.40;;;4.60;99.90;;;;;;4998544;28;20654;-83
2024/01/15 09:54:17;;;;;;;0.30;0.30;;;4.00;99.90;;;;;;5015106;28;20273;-83
2024/01/15 09:56:46;;;;;;;0.87;0.30;;;3.60;99.90;;;;;;5032077;28;20575;-83
2024/01/15 09:59:19;;;;;;;0.40;0.40;;;3.60;99.90;;;;;;4994952;28;20235;-82
2024/01/15 10:01:47;;;;;;;0.30;0.30;;;3.70;99.90;;;;;;5030544;28;20241;-83
2024/01/15 10:04:13;;;;;;;1.00;1.00;;;3.60;99.90;;;;;;4981030;28;20283;-81
2024/01/15 10:06:46;;;;;;;5.73;0.60;;;3.50;99.90;;;;;;4982148;28;20199;-83
2024/01/15 10:09:14;;;;;;;4.37;0.47;;;3.50;99.90;;;;;;4998692;28;20233;-83
2024/01/15 10:11:44;;;;;;;0.30;0.30;;;3.70;99.90;;;;;;4998831;28;20219;-82
2024/01/15 10:14:13;;;;;;;2.20;0.50;;;3.60;99.90;;;;;;5013959;28;20624;-82
2024/01/15 10:16:42;;;;;;;0.53;0.53;;;3.40;99.90;;;;;;5029800;28;20239;-82
2024/01/15 10:19:09;;;;;;;0.97;0.70;;;3.50;99.90;;;;;;4998753;28;20191;-84
2024/01/15 10:21:35;;;;;;;0.30;0.30;;;3.70;99.90;;;;;;5029626;28;20306;-83
2024/01/15 10:24:02;;;;;;;0.20;0.20;;;3.90;99.90;;;;;;5030411;28;20215;-82
2024/01/15 10:26:29;;;;;;;0.87;0.87;;;4.00;99.90;;;;;;4998098;28;20217;-83
2024/01/15 10:28:55;;;;;;;0.40;0.40;;;4.00;99.90;;;;;;4998625;28;20250;-81
2024/01/15 10:31:21;;;;;;;2.17;2.00;;;4.20;99.90;;;;;;4981976;28;20614;-82
2024/01/15 10:33:50;;;;;;;0.40;0.40;;;4.20;99.90;;;;;;4999629;28;20275;-84
2024/01/15 10:36:17;;;;;;;0.30;0.30;;;4.40;99.90;;;;;;4982994;28;20223;-83
2024/01/15 10:38:44;;;;;;;1.50;0.60;;;4.30;99.90;;;;;;5001882;28;20313;-82
2024/01/15 10:41:10;;;;;;;0.30;0.30;;;4.50;99.90;;;;;;5002267;28;20298;-82
2024/01/15 10:43:36;;;;;;;0.50;0.50;;;4.50;99.90;;;;;;5002125;28;20229;-82
2024/01/15 10:46:02;;;;;;;0.70;0.40;;;4.50;99.90;;;;;;5002535;28;20195;-83
2024/01/15 10:48:30;;;;;;;0.87;0.67;;;4.70;99.90;;;;;;5016511;28;20217;-83
2024/01/15 10:50:58;;;;;;;0.30;0.30;;;4.00;99.90;;;;;;4986359;28;21154;-83
2024/01/15 10:53:27;;;;;;;0.70;0.70;;;3.80;99.90;;;;;;4986134;28;20211;-83
2024/01/15 10:55:54;;;;;;;0.30;0.30;;;4.00;99.90;;;;;;5018840;28;20254;-83
2024/01/15 10:58:23;;;;;;;1.27;0.63;;;4.20;99.90;;;;;;5017557;28;20890;-82
2024/01/15 11:00:49;;;;;;;0.63;0.63;;;4.30;99.90;;;;;;5002122;28;20250;-83
2024/01/15 11:03:16;;;;;;;0.73;0.63;;;3.60;99.90;;;;;;5003108;28;20234;-82
2024/01/15 11:05:43;;;;;;;0.20;0.20;;;3.50;99.90;;;;;;4985449;28;20215;-82
2024/01/15 11:08:09;;;;;;;4.47;0.70;;;3.50;99.90;;;;;;5034424;28;20821;-82
2024/01/15 11:10:46;;;;;;;0.77;0.53;;;3.10;99.90;;;;;;5000697;28;20238;-82
2024/01/15 11:13:20;;;;;;;0.30;0.30;;;3.10;99.90;;;;;;5002403;28;20194;-82
2024/01/15 11:15:56;;;;;;;0.23;0.23;;;3.10;99.90;;;;;;5002662;28;20241;-82
2024/01/15 11:18:22;;;;;;;0.77;0.77;;;3.10;99.90;;;;;;5006940;28;20242;-83
2024/01/15 11:21:07;;;;;;;0.30;0.30;;;3.00;99.90;;;;;;5018458;28;20310;-82
2024/01/15 11:23:46;;;;;;;7.10;0.50;;;2.90;99.90;;;;;;5001790;28;20219;-83
2024/01/15 11:26:40;;;;;;;0.30;0.30;;;2.60;99.90;;;;;;5017036;28;20258;-83
2024/01/15 11:29:07;;;;;;;4.90;0.80;;;2.60;99.90;;;;;;5002339;28;20478;-82
2024/01/15 11:31:39;;;;;;;0.30;0.30;;;2.90;99.90;;;;;;5000763;28;20286;-83
2024/01/15 11:34:06;;;;;;;1.40;0.50;;;2.90;99.90;;;;;;5015917;28;20659;-83
2024/01/15 11:36:51;;;;;;;1.07;1.07;;;2.90;99.90;;;;;;5000751;28;20327;-82
2024/01/15 11:39:30;;;;;;;0.30;0.30;;;3.10;99.90;;;;;;5016709;28;20231;-83
2024/01/15 11:42:01;;;;;;;0.20;0.20;;;3.30;99.90;;;;;;5002576;28;20408;-83
2024/01/15 11:44:30;;;;;;;0.30;0.30;;;3.50;99.90;;;;;;5033687;28;20686;-83
2024/01/15 11:47:03;;;;;;;0.30;0.30;;;3.40;99.90;;;;;;4999985;28;20296;-84
2024/01/15 11:49:42;;;;;;;0.30;0.30;;;3.30;99.90;;;;;;4999755;28;20180;-83
2024/01/15 11:52:11;;;;;;;0.60;0.60;;;3.50;99.90;;;;;;5001697;28;20184;-83
2024/01/15 11:54:48;;;;;;;1.13;0.43;;;3.70;99.90;;;;;;5033829;28;20322;-82
2024/01/15 11:57:21;;;;;;;0.30;0.30;;;3.30;99.90;;;;;;5000255;28;20866;-84
2024/01/15 11:59:48;;;;;;;0.30;0.30;;;3.20;99.90;;;;;;5000454;28;20277;-82
2024/01/15 12:02:14;;;;;;;0.20;0.20;;;3.30;99.90;;;;;;4986715;28;20351;-88
2024/01/15 12:04:40;;;;;;;0.20;0.20;;;3.50;99.90;;;;;;5019886;28;20681;-85
2024/01/15 12:07:05;;;;;;;0.30;0.30;;;3.80;99.90;;;;;;5003895;28;20291;-87
2024/01/15 12:09:31;;;;;;;0.20;0.20;;;4.20;99.90;;;;;;5003799;28;20215;-85
2024/01/15 12:12:11;;;;;;;0.20;0.20;;;4.30;99.90;;;;;;5020138;28;20884;-87
2024/01/15 12:14:38;;;;;;;0.50;0.50;;;4.30;99.90;;;;;;5004066;28;20812;-85
2024/01/15 12:17:04;;;;;;;0.30;0.30;;;4.20;99.90;;;;;;4987952;28;20239;-85
2024/01/15 12:19:29;;;;;;;0.30;0.30;;;4.30;99.90;;;;;;5001931;28;20210;-86
2024/01/15 12:21:55;;;;;;;0.33;0.33;;;4.50;99.90;;;;;;5004264;28;20280;-85
2024/01/15 12:24:21;;;;;;;0.30;0.30;;;4.40;99.90;;;;;;5002440;28;20607;-86
2024/01/15 12:26:47;;;;;;;0.30;0.30;;;4.30;99.90;;;;;;5019514;28;20215;-86
2024/01/15 12:29:12;;;;;;;0.20;0.20;;;4.30;99.90;;;;;;5002551;28;20223;-85
2024/01/15 12:31:38;;;;;;;0.30;0.30;;;4.10;99.90;;;;;;5002710;28;20639;-87
2024/01/15 12:34:04;;;;;;;0.30;0.30;;;4.10;99.90;;;;;;5002409;28;20707;-86
2024/01/15 12:36:33;;;;;;;0.40;0.40;;;4.50;99.90;;;;;;5018780;28;20691;-86
2024/01/15 12:39:00;;;;;;;0.20;0.20;;;4.70;99.90;;;;;;5002047;28;20250;-85
2024/01/15 12:41:25;;;;;;;0.30;0.30;;;4.50;99.90;;;;;;4985906;28;20551;-86
2024/01/15 12:43:51;;;;;;;0.30;0.30;;;4.20;99.90;;;;;;5002913;28;20250;-86
2024/01/15 12:46:19;;;;;;;0.30;0.30;;;4.10;99.90;;;;;;4985344;28;20225;-86
2024/01/15 12:48:47;;;;;;;0.20;0.20;;;4.00;99.90;;;;;;5018620;28;20195;-87
2024/01/15 12:51:13;;;;;;;0.47;0.47;;;4.10;99.90;;;;;;5018480;28;20219;-84
2024/01/15 12:53:38;;;;;;;0.50;0.37;;;4.10;99.90;;;;;;4976566;28;20211;-84
2024/01/15 12:56:04;;;;;;;9.43;0.70;;;4.50;99.90;;;;;;4985597;28;20583;-84